sensor_id;sensor_type;location;lat;lon;timestamp;temperature;humidity
15426;DHT22;7812;50.072;7.036;2023-04-24T00:00:56;10.30;99.90
15426;DHT22;7812;50.072;7.036;2023-04-24T00:03:25;10.30;99.90
15426;DHT22;7812;50.072;7.036;2023-04-24T00:05:54;10.30;99.90
15426;DHT22;7812;50.072;7.036;2023-04-24T00:08:19;10.30;99.90
15426;DHT22;7812;50.072;7.036;2023-04-24T00:10:46;10.30;99.90
15426;DHT22;7812;50.072;7.036;2023-04-24T00:13:12;10.30;99.90
15426;DHT22;7812;50.072;7.036;2023-04-24T00:15:37;10.20;99.90
15426;DHT22;7812;50.072;7.036;2023-04-24T00:18:03;10.20;99.90
15426;DHT22;7812;50.072;7.036;2023-04-24T00:20:29;10.20;99.90
15426;DHT22;7812;50.072;7.036;2023-04-24T00:22:55;10.20;99.90
15426;DHT22;7812;50.072;7.036;2023-04-24T00:25:21;10.20;99.90
15426;DHT22;7812;50.072;7.036;2023-04-24T00:27:46;10.20;99.90
15426;DHT22;7812;50.072;7.036;2023-04-24T00:30:12;10.20;99.90
15426;DHT22;7812;50.072;7.036;2023-04-24T00:32:38;10.20;99.90
15426;DHT22;7812;50.072;7.036;2023-04-24T00:35:04;10.20;99.90
15426;DHT22;7812;50.072;7.036;2023-04-24T00:37:31;10.10;99.90
15426;DHT22;7812;50.072;7.036;2023-04-24T00:39:57;10.10;99.90
15426;DHT22;7812;50.072;7.036;2023-04-24T00:42:23;10.10;99.90
15426;DHT22;7812;50.072;7.036;2023-04-24T00:44:49;10.10;99.90
15426;DHT22;7812;50.072;7.036;2023-04-24T00:47:15;10.10;99.90
15426;DHT22;7812;50.072;7.036;2023-04-24T00:49:41;10.10;99.90
15426;DHT22;7812;50.072;7.036;2023-04-24T00:52:06;10.10;99.90
15426;DHT22;7812;50.072;7.036;2023-04-24T00:54:34;10.10;99.90
15426;DHT22;7812;50.072;7.036;2023-04-24T00:57:03;10.10;99.90
15426;DHT22;7812;50.072;7.036;2023-04-24T00:59:29;10.10;99.90
15426;DHT22;7812;50.072;7.036;2023-04-24T01:01:55;10.00;99.90
15426;DHT22;7812;50.072;7.036;2023-04-24T01:04:21;10.00;99.90
15426;DHT22;7812;50.072;7.036;2023-04-24T01:06:48;10.00;99.90
15426;DHT22;7812;50.072;7.036;2023-04-24T01:09:15;10.00;99.90
15426;DHT22;7812;50.072;7.036;2023-04-24T01:11:41;10.00;99.90
15426;DHT22;7812;50.072;7.036;2023-04-24T01:14:08;9.90;99.90
15426;DHT22;7812;50.072;7.036;2023-04-24T01:16:35;9.80;99.90
15426;DHT22;7812;50.072;7.036;2023-04-24T01:19:01;9.80;99.90
15426;DHT22;7812;50.072;7.036;2023-04-24T01:21:30;9.80;99.90
15426;DHT22;7812;50.072;7.036;2023-04-24T01:23:55;9.80;99.90
15426;DHT22;7812;50.072;7.036;2023-04-24T01:26:23;9.80;99.90
15426;DHT22;7812;50.072;7.036;2023-04-24T01:28:50;9.80;99.90
15426;DHT22;7812;50.072;7.036;2023-04-24T01:31:16;9.80;99.90
15426;DHT22;7812;50.072;7.036;2023-04-24T01:33:42;9.80;99.90
15426;DHT22;7812;50.072;7.036;2023-04-24T01:36:10;9.70;99.90
15426;DHT22;7812;50.072;7.036;2023-04-24T01:38:36;9.70;99.90
15426;DHT22;7812;50.072;7.036;2023-04-24T01:41:02;9.70;99.90
15426;DHT22;7812;50.072;7.036;2023-04-24T01:43:29;9.70;99.90
15426;DHT22;7812;50.072;7.036;2023-04-24T01:45:54;9.80;99.90
15426;DHT22;7812;50.072;7.036;2023-04-24T01:48:22;9.70;99.90
15426;DHT22;7812;50.072;7.036;2023-04-24T01:50:47;9.70;99.90
15426;DHT22;7812;50.072;7.036;2023-04-24T01:53:13;9.70;99.90
15426;DHT22;7812;50.072;7.036;2023-04-24T01:55:39;9.60;99.90
15426;DHT22;7812;50.072;7.036;2023-04-24T01:58:04;9.60;99.90
15426;DHT22;7812;50.072;7.036;2023-04-24T02:00:30;9.60;99.90
15426;DHT22;7812;50.072;7.036;2023-04-24T02:02:56;9.60;99.90
15426;DHT22;7812;50.072;7.036;2023-04-24T02:05:22;9.50;99.90
15426;DHT22;7812;50.072;7.036;2023-04-24T02:07:47;9.50;99.90
15426;DHT22;7812;50.072;7.036;2023-04-24T02:10:13;9.40;99.90
15426;DHT22;7812;50.072;7.036;2023-04-24T02:12:40;9.40;99.90
15426;DHT22;7812;50.072;7.036;2023-04-24T02:15:06;9.30;99.90
15426;DHT22;7812;50.072;7.036;2023-04-24T02:17:32;9.20;99.90
15426;DHT22;7812;50.072;7.036;2023-04-24T02:19:58;9.10;99.90
15426;DHT22;7812;50.072;7.036;2023-04-24T02:22:23;9.00;99.90
15426;DHT22;7812;50.072;7.036;2023-04-24T02:24:49;8.90;99.90
15426;DHT22;7812;50.072;7.036;2023-04-24T02:27:15;8.90;99.90
15426;DHT22;7812;50.072;7.036;2023-04-24T02:29:41;8.80;99.90
15426;DHT22;7812;50.072;7.036;2023-04-24T02:32:06;8.80;99.90
15426;DHT22;7812;50.072;7.036;2023-04-24T02:34:32;8.70;99.90
15426;DHT22;7812;50.072;7.036;2023-04-24T02:36:58;8.70;99.90
15426;DHT22;7812;50.072;7.036;2023-04-24T02:39:25;8.60;99.90
15426;DHT22;7812;50.072;7.036;2023-04-24T02:41:51;8.60;99.90
15426;DHT22;7812;50.072;7.036;2023-04-24T02:44:16;8.60;99.90
15426;DHT22;7812;50.072;7.036;2023-04-24T02:46:43;8.60;99.90
15426;DHT22;7812;50.072;7.036;2023-04-24T02:49:08;8.50;99.90
15426;DHT22;7812;50.072;7.036;2023-04-24T02:51:34;8.50;99.90
15426;DHT22;7812;50.072;7.036;2023-04-24T02:54:00;8.40;99.90
15426;DHT22;7812;50.072;7.036;2023-04-24T02:56:25;8.30;99.90
15426;DHT22;7812;50.072;7.036;2023-04-24T02:58:51;8.30;99.90
15426;DHT22;7812;50.072;7.036;2023-04-24T03:01:16;8.30;99.90
15426;DHT22;7812;50.072;7.036;2023-04-24T03:03:43;8.30;99.90
15426;DHT22;7812;50.072;7.036;2023-04-24T03:06:09;8.20;99.90
15426;DHT22;7812;50.072;7.036;2023-04-24T03:08:36;8.20;99.90
15426;DHT22;7812;50.072;7.036;2023-04-24T03:11:02;8.20;99.90
15426;DHT22;7812;50.072;7.036;2023-04-24T03:13:27;8.30;99.90
15426;DHT22;7812;50.072;7.036;2023-04-24T03:15:53;8.20;99.90
15426;DHT22;7812;50.072;7.036;2023-04-24T03:18:19;8.20;99.90
15426;DHT22;7812;50.072;7.036;2023-04-24T03:20:46;8.20;99.90
15426;DHT22;7812;50.072;7.036;2023-04-24T03:23:12;8.10;99.90
15426;DHT22;7812;50.072;7.036;2023-04-24T03:25:37;8.10;99.90
15426;DHT22;7812;50.072;7.036;2023-04-24T03:28:04;8.10;99.90
15426;DHT22;7812;50.072;7.036;2023-04-24T03:30:30;8.10;99.90
15426;DHT22;7812;50.072;7.036;2023-04-24T03:32:55;8.00;99.90
15426;DHT22;7812;50.072;7.036;2023-04-24T03:35:21;8.00;99.90
15426;DHT22;7812;50.072;7.036;2023-04-24T03:37:48;7.80;99.90
15426;DHT22;7812;50.072;7.036;2023-04-24T03:40:13;7.80;99.90
15426;DHT22;7812;50.072;7.036;2023-04-24T03:42:39;7.90;99.90
15426;DHT22;7812;50.072;7.036;2023-04-24T03:45:06;7.80;99.90
15426;DHT22;7812;50.072;7.036;2023-04-24T03:47:32;7.80;99.90
15426;DHT22;7812;50.072;7.036;2023-04-24T03:50:02;7.70;99.90
15426;DHT22;7812;50.072;7.036;2023-04-24T03:52:28;7.70;99.90
15426;DHT22;7812;50.072;7.036;2023-04-24T03:54:53;7.70;99.90
15426;DHT22;7812;50.072;7.036;2023-04-24T03:57:19;7.80;99.90
15426;DHT22;7812;50.072;7.036;2023-04-24T03:59:44;7.70;99.90
15426;DHT22;7812;50.072;7.036;2023-04-24T04:02:10;7.80;99.90
15426;DHT22;7812;50.072;7.036;2023-04-24T04:04:36;7.60;99.90
15426;DHT22;7812;50.072;7.036;2023-04-24T04:07:01;7.70;99.90
15426;DHT22;7812;50.072;7.036;2023-04-24T04:09:28;7.80;99.90
15426;DHT22;7812;50.072;7.036;2023-04-24T04:11:54;7.80;99.90
15426;DHT22;7812;50.072;7.036;2023-04-24T04:14:21;7.80;99.90
15426;DHT22;7812;50.072;7.036;2023-04-24T04:16:47;7.80;99.90
15426;DHT22;7812;50.072;7.036;2023-04-24T04:19:12;7.80;99.90
15426;DHT22;7812;50.072;7.036;2023-04-24T04:21:38;7.80;99.90
15426;DHT22;7812;50.072;7.036;2023-04-24T04:24:04;7.80;99.90
15426;DHT22;7812;50.072;7.036;2023-04-24T04:26:31;7.80;99.90
15426;DHT22;7812;50.072;7.036;2023-04-24T04:28:58;7.90;99.90
15426;DHT22;7812;50.072;7.036;2023-04-24T04:31:26;7.90;99.90
15426;DHT22;7812;50.072;7.036;2023-04-24T04:33:51;7.90;99.90
15426;DHT22;7812;50.072;7.036;2023-04-24T04:36:17;7.90;99.90
15426;DHT22;7812;50.072;7.036;2023-04-24T04:38:43;7.80;99.90
15426;DHT22;7812;50.072;7.036;2023-04-24T04:41:10;7.80;99.90
15426;DHT22;7812;50.072;7.036;2023-04-24T04:43:36;7.80;99.90
15426;DHT22;7812;50.072;7.036;2023-04-24T04:46:03;7.80;99.90
15426;DHT22;7812;50.072;7.036;2023-04-24T04:48:29;7.80;99.90
15426;DHT22;7812;50.072;7.036;2023-04-24T04:50:57;7.80;99.90
15426;DHT22;7812;50.072;7.036;2023-04-24T04:53:23;7.90;99.90
15426;DHT22;7812;50.072;7.036;2023-04-24T04:55:49;8.00;99.90
15426;DHT22;7812;50.072;7.036;2023-04-24T04:58:14;8.00;99.90
15426;DHT22;7812;50.072;7.036;2023-04-24T05:00:41;8.10;99.90
15426;DHT22;7812;50.072;7.036;2023-04-24T05:03:09;8.10;99.90
15426;DHT22;7812;50.072;7.036;2023-04-24T05:05:34;8.10;99.90
15426;DHT22;7812;50.072;7.036;2023-04-24T05:08:00;8.30;99.90
15426;DHT22;7812;50.072;7.036;2023-04-24T05:10:26;8.30;99.90
15426;DHT22;7812;50.072;7.036;2023-04-24T05:12:51;8.30;99.90
15426;DHT22;7812;50.072;7.036;2023-04-24T05:15:17;8.30;99.90
15426;DHT22;7812;50.072;7.036;2023-04-24T05:17:43;8.40;99.90
15426;DHT22;7812;50.072;7.036;2023-04-24T05:20:09;8.40;99.90
15426;DHT22;7812;50.072;7.036;2023-04-24T05:22:35;8.40;99.90
15426;DHT22;7812;50.072;7.036;2023-04-24T05:25:01;8.40;99.90
15426;DHT22;7812;50.072;7.036;2023-04-24T05:27:27;8.40;99.90
15426;DHT22;7812;50.072;7.036;2023-04-24T05:29:53;8.50;99.90
15426;DHT22;7812;50.072;7.036;2023-04-24T05:32:19;8.50;99.90
15426;DHT22;7812;50.072;7.036;2023-04-24T05:34:45;8.60;99.90
15426;DHT22;7812;50.072;7.036;2023-04-24T05:37:10;8.70;99.90
15426;DHT22;7812;50.072;7.036;2023-04-24T05:39:36;8.70;99.90
15426;DHT22;7812;50.072;7.036;2023-04-24T05:42:03;8.70;99.90
15426;DHT22;7812;50.072;7.036;2023-04-24T05:44:30;8.70;99.90
15426;DHT22;7812;50.072;7.036;2023-04-24T05:46:55;8.80;99.90
15426;DHT22;7812;50.072;7.036;2023-04-24T05:49:22;8.70;99.90
15426;DHT22;7812;50.072;7.036;2023-04-24T05:51:47;8.70;99.90
15426;DHT22;7812;50.072;7.036;2023-04-24T05:54:13;8.90;99.90
15426;DHT22;7812;50.072;7.036;2023-04-24T05:56:39;9.40;99.90
15426;DHT22;7812;50.072;7.036;2023-04-24T05:59:06;10.10;99.90
15426;DHT22;7812;50.072;7.036;2023-04-24T06:01:31;10.80;99.90
15426;DHT22;7812;50.072;7.036;2023-04-24T06:03:58;11.30;99.90
15426;DHT22;7812;50.072;7.036;2023-04-24T06:06:24;12.00;99.90
15426;DHT22;7812;50.072;7.036;2023-04-24T06:08:49;11.60;99.90
15426;DHT22;7812;50.072;7.036;2023-04-24T06:11:15;11.00;99.90
15426;DHT22;7812;50.072;7.036;2023-04-24T06:13:41;10.40;99.90
15426;DHT22;7812;50.072;7.036;2023-04-24T06:16:07;9.90;99.90
15426;DHT22;7812;50.072;7.036;2023-04-24T06:18:32;9.70;99.90
15426;DHT22;7812;50.072;7.036;2023-04-24T06:20:58;9.60;99.90
15426;DHT22;7812;50.072;7.036;2023-04-24T06:23:24;9.60;99.90
15426;DHT22;7812;50.072;7.036;2023-04-24T06:25:49;9.60;99.90
15426;DHT22;7812;50.072;7.036;2023-04-24T06:28:15;9.50;99.90
15426;DHT22;7812;50.072;7.036;2023-04-24T06:30:41;9.40;99.90
15426;DHT22;7812;50.072;7.036;2023-04-24T06:33:07;9.30;99.90
15426;DHT22;7812;50.072;7.036;2023-04-24T06:35:32;9.20;99.90
15426;DHT22;7812;50.072;7.036;2023-04-24T06:37:58;9.10;99.90
15426;DHT22;7812;50.072;7.036;2023-04-24T06:40:24;9.10;99.90
15426;DHT22;7812;50.072;7.036;2023-04-24T06:42:49;9.10;99.90
15426;DHT22;7812;50.072;7.036;2023-04-24T06:45:15;9.20;99.90
15426;DHT22;7812;50.072;7.036;2023-04-24T06:47:41;9.40;99.90
15426;DHT22;7812;50.072;7.036;2023-04-24T06:50:07;9.50;99.90
15426;DHT22;7812;50.072;7.036;2023-04-24T06:52:32;9.60;99.90
15426;DHT22;7812;50.072;7.036;2023-04-24T06:55:02;9.60;99.90
15426;DHT22;7812;50.072;7.036;2023-04-24T06:57:28;9.60;99.90
15426;DHT22;7812;50.072;7.036;2023-04-24T06:59:54;9.50;99.90
15426;DHT22;7812;50.072;7.036;2023-04-24T07:02:20;9.40;99.90
15426;DHT22;7812;50.072;7.036;2023-04-24T07:04:45;9.30;99.90
15426;DHT22;7812;50.072;7.036;2023-04-24T07:07:12;9.20;99.90
15426;DHT22;7812;50.072;7.036;2023-04-24T07:09:39;9.10;99.90
15426;DHT22;7812;50.072;7.036;2023-04-24T07:12:08;8.90;99.90
15426;DHT22;7812;50.072;7.036;2023-04-24T07:14:34;8.80;99.90
15426;DHT22;7812;50.072;7.036;2023-04-24T07:17:00;8.70;99.90
15426;DHT22;7812;50.072;7.036;2023-04-24T07:19:27;8.60;99.90
15426;DHT22;7812;50.072;7.036;2023-04-24T07:21:52;8.50;99.90
15426;DHT22;7812;50.072;7.036;2023-04-24T07:24:20;8.50;99.90
15426;DHT22;7812;50.072;7.036;2023-04-24T07:26:46;8.50;99.90
15426;DHT22;7812;50.072;7.036;2023-04-24T07:29:12;8.50;99.90
15426;DHT22;7812;50.072;7.036;2023-04-24T07:31:38;8.80;99.90
15426;DHT22;7812;50.072;7.036;2023-04-24T07:34:06;8.90;99.90
15426;DHT22;7812;50.072;7.036;2023-04-24T07:36:32;8.90;99.90
15426;DHT22;7812;50.072;7.036;2023-04-24T07:38:58;8.80;99.90
15426;DHT22;7812;50.072;7.036;2023-04-24T07:41:26;8.80;99.90
15426;DHT22;7812;50.072;7.036;2023-04-24T07:43:53;8.80;99.90
15426;DHT22;7812;50.072;7.036;2023-04-24T07:46:19;8.70;99.90
15426;DHT22;7812;50.072;7.036;2023-04-24T07:48:45;8.60;99.90
15426;DHT22;7812;50.072;7.036;2023-04-24T07:51:14;8.60;99.90
15426;DHT22;7812;50.072;7.036;2023-04-24T07:53:39;8.60;99.90
15426;DHT22;7812;50.072;7.036;2023-04-24T07:56:05;8.70;99.90
15426;DHT22;7812;50.072;7.036;2023-04-24T07:58:31;8.80;99.90
15426;DHT22;7812;50.072;7.036;2023-04-24T08:00:57;8.80;99.90
15426;DHT22;7812;50.072;7.036;2023-04-24T08:03:22;8.80;99.90
15426;DHT22;7812;50.072;7.036;2023-04-24T08:05:49;8.90;99.90
15426;DHT22;7812;50.072;7.036;2023-04-24T08:08:16;9.00;99.90
15426;DHT22;7812;50.072;7.036;2023-04-24T08:10:42;9.10;99.90
15426;DHT22;7812;50.072;7.036;2023-04-24T08:13:07;9.20;99.90
15426;DHT22;7812;50.072;7.036;2023-04-24T08:15:33;9.10;99.90
15426;DHT22;7812;50.072;7.036;2023-04-24T08:17:59;9.00;99.90
15426;DHT22;7812;50.072;7.036;2023-04-24T08:20:25;9.00;99.90
15426;DHT22;7812;50.072;7.036;2023-04-24T08:22:50;8.90;99.90
15426;DHT22;7812;50.072;7.036;2023-04-24T08:25:17;9.00;99.90
15426;DHT22;7812;50.072;7.036;2023-04-24T08:27:44;9.00;99.90
15426;DHT22;7812;50.072;7.036;2023-04-24T08:30:10;9.00;99.90
15426;DHT22;7812;50.072;7.036;2023-04-24T08:32:36;8.90;99.90
15426;DHT22;7812;50.072;7.036;2023-04-24T08:35:03;8.80;99.90
15426;DHT22;7812;50.072;7.036;2023-04-24T08:37:29;8.90;99.90
15426;DHT22;7812;50.072;7.036;2023-04-24T08:39:54;8.80;99.90
15426;DHT22;7812;50.072;7.036;2023-04-24T08:42:21;8.70;99.90
15426;DHT22;7812;50.072;7.036;2023-04-24T08:44:48;8.70;99.90
15426;DHT22;7812;50.072;7.036;2023-04-24T08:50:31;8.60;99.90
15426;DHT22;7812;50.072;7.036;2023-04-24T08:52:58;8.70;99.90
15426;DHT22;7812;50.072;7.036;2023-04-24T08:55:24;8.80;99.90
15426;DHT22;7812;50.072;7.036;2023-04-24T08:57:51;8.90;99.90
15426;DHT22;7812;50.072;7.036;2023-04-24T09:00:21;9.00;99.90
15426;DHT22;7812;50.072;7.036;2023-04-24T09:02:49;8.80;99.90
15426;DHT22;7812;50.072;7.036;2023-04-24T09:05:17;8.80;99.90
15426;DHT22;7812;50.072;7.036;2023-04-24T09:07:46;8.80;99.90
15426;DHT22;7812;50.072;7.036;2023-04-24T09:10:15;8.80;99.90
15426;DHT22;7812;50.072;7.036;2023-04-24T09:12:41;8.80;99.90
15426;DHT22;7812;50.072;7.036;2023-04-24T09:15:08;9.30;99.90
15426;DHT22;7812;50.072;7.036;2023-04-24T09:17:34;11.00;99.90
15426;DHT22;7812;50.072;7.036;2023-04-24T09:20:01;12.30;99.90
15426;DHT22;7812;50.072;7.036;2023-04-24T09:22:32;13.10;99.90
15426;DHT22;7812;50.072;7.036;2023-04-24T09:25:06;13.40;99.90
15426;DHT22;7812;50.072;7.036;2023-04-24T09:27:33;13.30;99.90
15426;DHT22;7812;50.072;7.036;2023-04-24T09:29:59;14.10;99.90
15426;DHT22;7812;50.072;7.036;2023-04-24T09:32:26;14.20;99.90
15426;DHT22;7812;50.072;7.036;2023-04-24T09:37:39;15.80;99.90
15426;DHT22;7812;50.072;7.036;2023-04-24T09:42:59;16.30;99.90
15426;DHT22;7812;50.072;7.036;2023-04-24T09:45:39;14.70;99.90
15426;DHT22;7812;50.072;7.036;2023-04-24T09:48:05;13.60;99.90
15426;DHT22;7812;50.072;7.036;2023-04-24T09:50:33;13.60;99.90
15426;DHT22;7812;50.072;7.036;2023-04-24T09:53:02;13.30;99.90
15426;DHT22;7812;50.072;7.036;2023-04-24T09:55:28;13.00;99.90
15426;DHT22;7812;50.072;7.036;2023-04-24T09:57:58;12.70;99.90
15426;DHT22;7812;50.072;7.036;2023-04-24T10:00:29;12.30;99.90
15426;DHT22;7812;50.072;7.036;2023-04-24T10:05:27;11.30;99.90
15426;DHT22;7812;50.072;7.036;2023-04-24T10:08:06;11.00;99.90
15426;DHT22;7812;50.072;7.036;2023-04-24T10:10:33;10.80;99.90
15426;DHT22;7812;50.072;7.036;2023-04-24T10:12:59;10.70;99.90
15426;DHT22;7812;50.072;7.036;2023-04-24T10:15:26;10.60;99.90
15426;DHT22;7812;50.072;7.036;2023-04-24T10:17:52;10.50;99.90
15426;DHT22;7812;50.072;7.036;2023-04-24T10:20:23;10.50;99.90
15426;DHT22;7812;50.072;7.036;2023-04-24T10:22:51;10.50;99.90
15426;DHT22;7812;50.072;7.036;2023-04-24T10:25:22;10.50;99.90
15426;DHT22;7812;50.072;7.036;2023-04-24T10:27:50;10.50;99.90
15426;DHT22;7812;50.072;7.036;2023-04-24T10:30:16;10.50;99.90
15426;DHT22;7812;50.072;7.036;2023-04-24T10:32:42;10.50;99.90
15426;DHT22;7812;50.072;7.036;2023-04-24T10:35:09;10.80;99.90
15426;DHT22;7812;50.072;7.036;2023-04-24T10:37:42;11.00;99.90
15426;DHT22;7812;50.072;7.036;2023-04-24T10:40:09;11.00;99.90
15426;DHT22;7812;50.072;7.036;2023-04-24T10:42:39;11.10;99.90
15426;DHT22;7812;50.072;7.036;2023-04-24T10:45:06;11.00;99.90
15426;DHT22;7812;50.072;7.036;2023-04-24T10:47:41;10.90;99.90
15426;DHT22;7812;50.072;7.036;2023-04-24T10:50:10;10.90;99.90
15426;DHT22;7812;50.072;7.036;2023-04-24T10:52:46;10.80;99.90
15426;DHT22;7812;50.072;7.036;2023-04-24T10:55:15;11.00;99.90
15426;DHT22;7812;50.072;7.036;2023-04-24T10:58:03;11.30;99.90
15426;DHT22;7812;50.072;7.036;2023-04-24T11:00:29;11.70;99.90
15426;DHT22;7812;50.072;7.036;2023-04-24T11:02:55;11.60;99.90
15426;DHT22;7812;50.072;7.036;2023-04-24T11:05:23;11.50;99.90
15426;DHT22;7812;50.072;7.036;2023-04-24T11:08:15;11.50;99.90
15426;DHT22;7812;50.072;7.036;2023-04-24T11:10:46;11.40;99.90
15426;DHT22;7812;50.072;7.036;2023-04-24T11:13:16;11.50;99.90
15426;DHT22;7812;50.072;7.036;2023-04-24T11:15:42;11.60;99.90
15426;DHT22;7812;50.072;7.036;2023-04-24T11:18:15;11.70;99.90
15426;DHT22;7812;50.072;7.036;2023-04-24T11:20:44;11.80;99.90
15426;DHT22;7812;50.072;7.036;2023-04-24T11:23:12;12.50;99.90
15426;DHT22;7812;50.072;7.036;2023-04-24T11:25:38;13.70;99.90
15426;DHT22;7812;50.072;7.036;2023-04-24T11:28:05;14.10;99.90
15426;DHT22;7812;50.072;7.036;2023-04-24T11:30:31;14.90;99.90
15426;DHT22;7812;50.072;7.036;2023-04-24T11:33:03;14.10;99.90
15426;DHT22;7812;50.072;7.036;2023-04-24T11:35:29;13.10;99.90
15426;DHT22;7812;50.072;7.036;2023-04-24T11:37:56;12.70;99.90
15426;DHT22;7812;50.072;7.036;2023-04-24T11:40:22;12.20;99.90
15426;DHT22;7812;50.072;7.036;2023-04-24T11:42:50;12.10;99.90
15426;DHT22;7812;50.072;7.036;2023-04-24T11:45:21;12.00;99.90
15426;DHT22;7812;50.072;7.036;2023-04-24T11:47:47;12.00;99.90
15426;DHT22;7812;50.072;7.036;2023-04-24T11:50:15;12.00;99.90
15426;DHT22;7812;50.072;7.036;2023-04-24T11:52:43;12.00;99.90
15426;DHT22;7812;50.072;7.036;2023-04-24T11:57:48;12.80;99.90
15426;DHT22;7812;50.072;7.036;2023-04-24T12:00:34;12.60;99.90
15426;DHT22;7812;50.072;7.036;2023-04-24T12:03:10;12.50;99.90
15426;DHT22;7812;50.072;7.036;2023-04-24T12:05:37;12.30;99.90
15426;DHT22;7812;50.072;7.036;2023-04-24T12:08:06;12.10;99.90
15426;DHT22;7812;50.072;7.036;2023-04-24T12:10:32;12.00;99.90
15426;DHT22;7812;50.072;7.036;2023-04-24T12:12:59;12.10;99.90
15426;DHT22;7812;50.072;7.036;2023-04-24T12:15:26;12.30;99.90
15426;DHT22;7812;50.072;7.036;2023-04-24T12:17:52;12.30;99.90
15426;DHT22;7812;50.072;7.036;2023-04-24T12:20:32;12.20;99.90
15426;DHT22;7812;50.072;7.036;2023-04-24T12:22:59;12.20;99.90
15426;DHT22;7812;50.072;7.036;2023-04-24T12:25:31;12.00;99.90
15426;DHT22;7812;50.072;7.036;2023-04-24T12:30:32;11.60;99.90
15426;DHT22;7812;50.072;7.036;2023-04-24T12:32:59;11.60;99.90
15426;DHT22;7812;50.072;7.036;2023-04-24T12:35:27;11.50;99.90
15426;DHT22;7812;50.072;7.036;2023-04-24T12:37:53;11.40;99.90
15426;DHT22;7812;50.072;7.036;2023-04-24T12:40:21;11.40;99.90
15426;DHT22;7812;50.072;7.036;2023-04-24T12:42:49;11.40;99.90
15426;DHT22;7812;50.072;7.036;2023-04-24T12:45:16;11.80;99.90
15426;DHT22;7812;50.072;7.036;2023-04-24T12:47:43;12.50;99.90
15426;DHT22;7812;50.072;7.036;2023-04-24T12:50:11;12.90;99.90
15426;DHT22;7812;50.072;7.036;2023-04-24T12:52:38;12.90;99.90
15426;DHT22;7812;50.072;7.036;2023-04-24T12:55:05;13.20;99.90
15426;DHT22;7812;50.072;7.036;2023-04-24T12:57:34;13.00;99.90
15426;DHT22;7812;50.072;7.036;2023-04-24T13:00:01;12.80;99.90
15426;DHT22;7812;50.072;7.036;2023-04-24T13:02:29;12.40;99.90
15426;DHT22;7812;50.072;7.036;2023-04-24T13:04:56;12.30;99.90
15426;DHT22;7812;50.072;7.036;2023-04-24T13:07:22;12.30;99.90
15426;DHT22;7812;50.072;7.036;2023-04-24T13:09:49;12.50;99.90
15426;DHT22;7812;50.072;7.036;2023-04-24T13:12:15;12.50;99.90
15426;DHT22;7812;50.072;7.036;2023-04-24T13:14:41;12.40;99.90
15426;DHT22;7812;50.072;7.036;2023-04-24T13:17:07;12.60;99.90
15426;DHT22;7812;50.072;7.036;2023-04-24T13:19:38;12.80;99.90
15426;DHT22;7812;50.072;7.036;2023-04-24T13:22:04;12.90;99.90
15426;DHT22;7812;50.072;7.036;2023-04-24T13:24:31;13.10;99.90
15426;DHT22;7812;50.072;7.036;2023-04-24T13:26:57;13.10;99.90
15426;DHT22;7812;50.072;7.036;2023-04-24T13:29:23;13.10;99.90
15426;DHT22;7812;50.072;7.036;2023-04-24T13:31:53;13.60;99.90
15426;DHT22;7812;50.072;7.036;2023-04-24T13:34:21;13.70;99.90
15426;DHT22;7812;50.072;7.036;2023-04-24T13:36:47;13.90;99.90
15426;DHT22;7812;50.072;7.036;2023-04-24T13:39:12;13.80;99.90
15426;DHT22;7812;50.072;7.036;2023-04-24T13:41:38;13.00;99.90
15426;DHT22;7812;50.072;7.036;2023-04-24T13:44:05;13.00;99.90
15426;DHT22;7812;50.072;7.036;2023-04-24T13:46:32;12.80;99.90
15426;DHT22;7812;50.072;7.036;2023-04-24T13:48:58;12.60;99.90
15426;DHT22;7812;50.072;7.036;2023-04-24T13:51:25;12.40;99.90
15426;DHT22;7812;50.072;7.036;2023-04-24T13:53:54;12.60;99.90
15426;DHT22;7812;50.072;7.036;2023-04-24T13:56:20;12.60;99.90
15426;DHT22;7812;50.072;7.036;2023-04-24T13:58:46;12.70;99.90
15426;DHT22;7812;50.072;7.036;2023-04-24T14:01:12;12.50;99.90
15426;DHT22;7812;50.072;7.036;2023-04-24T14:03:38;12.60;99.90
15426;DHT22;7812;50.072;7.036;2023-04-24T14:06:04;12.50;99.90
15426;DHT22;7812;50.072;7.036;2023-04-24T14:08:30;12.30;99.90
15426;DHT22;7812;50.072;7.036;2023-04-24T14:10:55;12.10;99.90
15426;DHT22;7812;50.072;7.036;2023-04-24T14:13:21;11.90;99.90
15426;DHT22;7812;50.072;7.036;2023-04-24T14:15:47;11.70;99.90
15426;DHT22;7812;50.072;7.036;2023-04-24T14:18:14;11.60;99.90
15426;DHT22;7812;50.072;7.036;2023-04-24T14:20:39;11.60;99.90
15426;DHT22;7812;50.072;7.036;2023-04-24T14:23:05;11.60;99.90
15426;DHT22;7812;50.072;7.036;2023-04-24T14:25:32;11.60;99.90
15426;DHT22;7812;50.072;7.036;2023-04-24T14:27:58;11.60;99.90
15426;DHT22;7812;50.072;7.036;2023-04-24T14:30:23;11.60;99.90
15426;DHT22;7812;50.072;7.036;2023-04-24T14:32:49;11.70;99.90
15426;DHT22;7812;50.072;7.036;2023-04-24T14:35:15;11.70;99.90
15426;DHT22;7812;50.072;7.036;2023-04-24T14:37:41;11.80;99.90
15426;DHT22;7812;50.072;7.036;2023-04-24T14:40:09;12.10;99.90
15426;DHT22;7812;50.072;7.036;2023-04-24T14:42:35;12.60;99.90
15426;DHT22;7812;50.072;7.036;2023-04-24T14:45:01;12.70;99.90
15426;DHT22;7812;50.072;7.036;2023-04-24T14:47:27;12.50;99.90
15426;DHT22;7812;50.072;7.036;2023-04-24T14:49:53;12.60;99.90
15426;DHT22;7812;50.072;7.036;2023-04-24T14:52:18;12.80;99.90
15426;DHT22;7812;50.072;7.036;2023-04-24T14:54:45;12.90;99.90
15426;DHT22;7812;50.072;7.036;2023-04-24T14:57:10;12.80;99.90
15426;DHT22;7812;50.072;7.036;2023-04-24T14:59:36;12.90;99.90
15426;DHT22;7812;50.072;7.036;2023-04-24T15:02:02;12.70;99.90
15426;DHT22;7812;50.072;7.036;2023-04-24T15:04:28;12.80;99.90
15426;DHT22;7812;50.072;7.036;2023-04-24T15:06:54;12.80;99.90
15426;DHT22;7812;50.072;7.036;2023-04-24T15:09:22;12.80;99.90
15426;DHT22;7812;50.072;7.036;2023-04-24T15:11:49;13.00;99.90
15426;DHT22;7812;50.072;7.036;2023-04-24T15:14:16;13.10;99.90
15426;DHT22;7812;50.072;7.036;2023-04-24T15:16:42;13.10;99.90
15426;DHT22;7812;50.072;7.036;2023-04-24T15:19:08;13.30;99.90
15426;DHT22;7812;50.072;7.036;2023-04-24T15:21:35;13.50;99.90
15426;DHT22;7812;50.072;7.036;2023-04-24T15:24:04;13.60;99.90
15426;DHT22;7812;50.072;7.036;2023-04-24T15:26:30;13.80;99.90
15426;DHT22;7812;50.072;7.036;2023-04-24T15:28:56;13.70;99.90
15426;DHT22;7812;50.072;7.036;2023-04-24T15:31:21;13.50;99.90
15426;DHT22;7812;50.072;7.036;2023-04-24T15:33:48;13.40;99.90
15426;DHT22;7812;50.072;7.036;2023-04-24T15:36:15;13.50;99.90
15426;DHT22;7812;50.072;7.036;2023-04-24T15:38:42;13.50;99.90
15426;DHT22;7812;50.072;7.036;2023-04-24T15:41:08;13.50;99.90
15426;DHT22;7812;50.072;7.036;2023-04-24T15:43:34;13.50;99.90
15426;DHT22;7812;50.072;7.036;2023-04-24T15:46:01;13.30;99.90
15426;DHT22;7812;50.072;7.036;2023-04-24T15:48:29;13.20;99.90
15426;DHT22;7812;50.072;7.036;2023-04-24T15:50:55;13.30;99.90
15426;DHT22;7812;50.072;7.036;2023-04-24T15:53:21;13.40;99.90
15426;DHT22;7812;50.072;7.036;2023-04-24T15:55:51;13.40;99.90
15426;DHT22;7812;50.072;7.036;2023-04-24T15:58:18;13.60;99.90
15426;DHT22;7812;50.072;7.036;2023-04-24T16:00:44;13.50;99.90
15426;DHT22;7812;50.072;7.036;2023-04-24T16:03:10;13.40;99.90
15426;DHT22;7812;50.072;7.036;2023-04-24T16:05:37;13.20;99.90
15426;DHT22;7812;50.072;7.036;2023-04-24T16:08:03;13.20;99.90